Time;durP1;ratioP1;P1;durP2;ratioP2;P2;SDS_P1;SDS_P2;PMS_P1;PMS_P2;Temp;Humidity;BMP_temperature;BMP_pressure;BME280_temperature;BME280_humidity;BME280_pressure;Samples;Min_cycle;Max_cycle;Signal;HPM_P1;HPM_P2
2021/11/15 00:00:08;;;;;;;9.73;5.93;;;;;;;;;;4933770;29;20023;-72
2021/11/15 00:02:34;;;;;;;9.20;5.80;;;;;;;;;;4932981;29;20059;-72
2021/11/15 00:05:00;;;;;;;9.73;6.03;;;;;;;;;;4933475;29;20031;-72
2021/11/15 00:07:26;;;;;;;10.18;5.40;;;;;;;;;;4951005;29;20062;-72
2021/11/15 00:09:52;;;;;;;10.68;6.18;;;;;;;;;;4934071;29;20047;-72
2021/11/15 00:12:18;;;;;;;10.23;6.32;;;;;;;;;;4950987;29;20055;-73
2021/11/15 00:14:45;;;;;;;13.35;10.00;;;;;;;;;;4933633;29;20048;-73
2021/11/15 00:17:12;;;;;;;10.23;7.80;;;;;;;;;;4951001;29;20404;-72
2021/11/15 00:19:38;;;;;;;9.63;6.57;;;;;;;;;;4950874;29;20020;-72
2021/11/15 00:22:05;;;;;;;8.82;6.55;;;;;;;;;;4933663;29;20028;-72
2021/11/15 00:24:31;;;;;;;9.93;8.02;;;;;;;;;;4933754;29;20020;-73
2021/11/15 00:26:57;;;;;;;10.25;7.13;;;;;;;;;;4933384;29;20068;-72
2021/11/15 00:29:24;;;;;;;9.13;6.47;;;;;;;;;;4932549;29;20027;-71
2021/11/15 00:31:50;;;;;;;10.45;7.18;;;;;;;;;;4931918;29;20035;-74
2021/11/15 00:34:16;;;;;;;11.68;7.40;;;;;;;;;;4946366;29;20035;-75
2021/11/15 00:36:42;;;;;;;9.88;5.80;;;;;;;;;;4946153;29;20036;-75
2021/11/15 00:39:08;;;;;;;8.95;6.95;;;;;;;;;;4945425;29;20533;-75
2021/11/15 00:41:34;;;;;;;12.25;6.63;;;;;;;;;;4945722;29;20027;-77
2021/11/15 00:44:00;;;;;;;12.00;7.45;;;;;;;;;;4928385;29;20048;-77
2021/11/15 00:46:26;;;;;;;12.25;8.73;;;;;;;;;;4945436;29;20034;-76
2021/11/15 00:48:55;;;;;;;10.90;7.22;;;;;;;;;;4943565;29;20036;-75
2021/11/15 00:51:26;;;;;;;12.43;6.75;;;;;;;;;;4925973;29;20023;-75
2021/11/15 00:53:52;;;;;;;10.02;6.18;;;;;;;;;;4924754;29;20028;-75
2021/11/15 00:56:18;;;;;;;9.80;5.85;;;;;;;;;;4941856;29;20070;-76
2021/11/15 00:58:44;;;;;;;9.85;6.72;;;;;;;;;;4925460;29;20043;-76
2021/11/15 01:01:11;;;;;;;11.85;6.68;;;;;;;;;;4942428;29;20027;-75
2021/11/15 01:03:37;;;;;;;10.85;6.30;;;;;;;;;;4942273;29;20019;-74
2021/11/15 01:06:03;;;;;;;9.77;6.65;;;;;;;;;;4941639;29;20067;-74
2021/11/15 01:08:29;;;;;;;15.48;7.05;;;;;;;;;;4942345;29;20070;-75
2021/11/15 01:10:55;;;;;;;10.38;6.13;;;;;;;;;;4942833;29;20032;-74
2021/11/15 01:13:23;;;;;;;10.95;6.50;;;;;;;;;;4942427;29;20020;-74
2021/11/15 01:15:49;;;;;;;10.07;6.22;;;;;;;;;;4942226;29;20376;-74
2021/11/15 01:18:15;;;;;;;12.57;6.53;;;;;;;;;;4942596;29;20028;-75
2021/11/15 01:20:42;;;;;;;10.75;5.22;;;;;;;;;;4942216;29;20015;-76
2021/11/15 01:23:08;;;;;;;9.95;4.97;;;;;;;;;;4942032;29;20027;-75
2021/11/15 01:25:35;;;;;;;10.05;4.93;;;;;;;;;;4942523;29;20028;-74
2021/11/15 01:28:01;;;;;;;6.97;5.20;;;;;;;;;;4943896;29;20526;-75
2021/11/15 01:30:28;;;;;;;7.20;4.97;;;;;;;;;;4943577;29;20054;-75
2021/11/15 01:32:54;;;;;;;7.80;5.25;;;;;;;;;;4927725;29;20028;-74
2021/11/15 01:35:21;;;;;;;9.00;5.35;;;;;;;;;;4946292;29;20084;-75
2021/11/15 01:37:48;;;;;;;8.98;5.13;;;;;;;;;;4946201;29;20112;-75
2021/11/15 01:40:16;;;;;;;9.30;4.63;;;;;;;;;;4944412;29;20026;-74
2021/11/15 01:42:42;;;;;;;10.30;5.38;;;;;;;;;;4927118;29;20054;-75
2021/11/15 01:45:08;;;;;;;7.63;4.80;;;;;;;;;;4942786;29;20024;-75
2021/11/15 01:47:34;;;;;;;10.93;5.05;;;;;;;;;;4943500;29;20087;-76
2021/11/15 01:50:01;;;;;;;9.60;5.30;;;;;;;;;;4943402;29;20059;-75
2021/11/15 01:52:27;;;;;;;8.05;5.28;;;;;;;;;;4940859;29;20039;-76
2021/11/15 01:54:53;;;;;;;8.75;4.55;;;;;;;;;;4942742;29;20402;-75
2021/11/15 01:57:20;;;;;;;8.55;5.40;;;;;;;;;;4941831;29;20047;-74
2021/11/15 01:59:46;;;;;;;6.93;4.60;;;;;;;;;;4942694;29;20131;-73
2021/11/15 02:02:12;;;;;;;9.27;4.68;;;;;;;;;;4926277;29;20024;-75
2021/11/15 02:04:38;;;;;;;8.55;4.68;;;;;;;;;;4942804;29;20024;-74
2021/11/15 02:07:05;;;;;;;10.77;4.80;;;;;;;;;;4944096;29;20056;-73
2021/11/15 02:09:31;;;;;;;7.53;4.80;;;;;;;;;;4945676;29;20082;-74
2021/11/15 02:11:58;;;;;;;6.60;4.55;;;;;;;;;;4946211;29;20032;-73
2021/11/15 02:14:24;;;;;;;7.45;4.70;;;;;;;;;;4946792;29;20031;-74
2021/11/15 02:16:50;;;;;;;9.40;5.20;;;;;;;;;;4948096;29;20031;-74
2021/11/15 02:19:16;;;;;;;10.90;5.10;;;;;;;;;;4947996;29;20026;-74
2021/11/15 02:21:42;;;;;;;9.68;5.35;;;;;;;;;;4944438;29;20028;-75
2021/11/15 02:24:09;;;;;;;9.63;5.55;;;;;;;;;;4939893;29;20031;-76
2021/11/15 02:26:35;;;;;;;9.48;5.65;;;;;;;;;;4939701;29;20055;-74
2021/11/15 02:29:01;;;;;;;9.38;5.80;;;;;;;;;;4923052;29;20039;-75
2021/11/15 02:31:28;;;;;;;10.73;5.72;;;;;;;;;;4944069;29;20024;-74
2021/11/15 02:33:56;;;;;;;11.80;5.95;;;;;;;;;;4946625;29;20027;-74
2021/11/15 02:36:23;;;;;;;14.27;7.65;;;;;;;;;;4947657;29;20044;-74
2021/11/15 02:38:51;;;;;;;13.25;7.22;;;;;;;;;;4947227;29;20052;-74
2021/11/15 02:41:18;;;;;;;13.48;7.22;;;;;;;;;;4946332;29;20027;-74
2021/11/15 02:43:44;;;;;;;14.55;6.68;;;;;;;;;;4928056;29;20047;-73
2021/11/15 02:46:10;;;;;;;9.43;5.55;;;;;;;;;;4925926;29;20028;-74
2021/11/15 02:48:37;;;;;;;4.20;3.13;;;;;;;;;;4941525;29;20483;-75
2021/11/15 02:51:03;;;;;;;4.78;3.03;;;;;;;;;;4942789;29;20032;-74
2021/11/15 02:53:29;;;;;;;3.33;2.60;;;;;;;;;;4942025;29;20027;-75
2021/11/15 02:55:55;;;;;;;3.50;2.33;;;;;;;;;;4941104;29;20435;-74
2021/11/15 02:58:21;;;;;;;2.75;2.28;;;;;;;;;;4941371;29;20050;-74
2021/11/15 03:00:48;;;;;;;3.90;2.30;;;;;;;;;;4926135;29;20019;-73
2021/11/15 03:03:14;;;;;;;2.63;2.00;;;;;;;;;;4942713;29;20028;-74
2021/11/15 03:05:42;;;;;;;2.40;2.03;;;;;;;;;;4942933;29;20027;-75
2021/11/15 03:08:09;;;;;;;2.08;1.70;;;;;;;;;;4943148;29;20030;-74
2021/11/15 03:10:37;;;;;;;2.03;1.80;;;;;;;;;;4941727;29;20031;-76
2021/11/15 03:13:07;;;;;;;9.40;2.00;;;;;;;;;;4940329;29;20031;-74
2021/11/15 03:15:35;;;;;;;1.48;1.38;;;;;;;;;;4941869;29;20469;-74
2021/11/15 03:18:04;;;;;;;1.52;1.42;;;;;;;;;;4942396;29;20459;-75
2021/11/15 03:20:31;;;;;;;1.70;1.60;;;;;;;;;;4940871;29;20035;-76
2021/11/15 03:22:57;;;;;;;1.88;1.70;;;;;;;;;;4941826;29;20473;-75
2021/11/15 03:25:30;;;;;;;5.47;1.92;;;;;;;;;;4923717;29;20043;-76
2021/11/15 03:27:56;;;;;;;1.35;1.25;;;;;;;;;;4941342;29;20051;-74
2021/11/15 03:30:23;;;;;;;1.92;1.40;;;;;;;;;;4940561;29;20506;-75
2021/11/15 03:32:50;;;;;;;1.77;1.40;;;;;;;;;;4944541;29;20031;-75
2021/11/15 03:35:16;;;;;;;1.77;1.50;;;;;;;;;;4943655;29;20371;-75
2021/11/15 03:37:43;;;;;;;2.08;1.45;;;;;;;;;;4944062;29;20032;-74
2021/11/15 03:40:13;;;;;;;1.83;1.58;;;;;;;;;;4944488;29;20419;-75
2021/11/15 03:42:40;;;;;;;1.92;1.60;;;;;;;;;;4943382;29;20091;-75
2021/11/15 03:45:06;;;;;;;2.10;1.52;;;;;;;;;;4944814;29;20020;-75
2021/11/15 03:47:32;;;;;;;1.30;1.20;;;;;;;;;;4927786;29;20020;-75
2021/11/15 03:49:58;;;;;;;7.50;1.50;;;;;;;;;;4944950;29;20059;-74
2021/11/15 03:52:24;;;;;;;1.55;1.45;;;;;;;;;;4928162;29;20055;-75
2021/11/15 03:54:51;;;;;;;1.58;1.20;;;;;;;;;;4944631;29;20031;-73
2021/11/15 03:57:17;;;;;;;1.35;1.15;;;;;;;;;;4945851;29;20051;-75
2021/11/15 03:59:43;;;;;;;1.30;1.20;;;;;;;;;;4944071;29;20471;-74
2021/11/15 04:02:11;;;;;;;2.70;2.45;;;;;;;;;;4942687;29;20422;-75
2021/11/15 04:04:57;;;;;;;1.40;1.30;;;;;;;;;;4927879;29;20143;-74
2021/11/15 04:10:20;;;;;;;2.60;1.42;;;;;;;;;;4938771;29;19914;-75
2021/11/15 04:12:47;;;;;;;3.53;1.55;;;;;;;;;;4941817;29;20063;-77
2021/11/15 04:15:13;;;;;;;1.42;1.33;;;;;;;;;;4941801;29;20031;-76
2021/11/15 04:17:41;;;;;;;1.50;1.40;;;;;;;;;;4942087;29;20511;-76
2021/11/15 04:20:07;;;;;;;1.17;1.17;;;;;;;;;;4942142;29;20051;-76
2021/11/15 04:22:35;;;;;;;2.63;1.40;;;;;;;;;;4941055;29;20083;-74
2021/11/15 04:25:02;;;;;;;1.67;1.50;;;;;;;;;;4941521;29;20075;-75
2021/11/15 04:27:28;;;;;;;2.00;1.50;;;;;;;;;;4941984;29;20364;-74
2021/11/15 04:29:54;;;;;;;1.40;1.30;;;;;;;;;;4942670;29;20067;-75
2021/11/15 04:32:20;;;;;;;1.10;1.10;;;;;;;;;;4942741;29;20023;-75
2021/11/15 04:34:46;;;;;;;1.35;1.25;;;;;;;;;;4943508;29;20028;-77
2021/11/15 04:37:12;;;;;;;3.05;1.55;;;;;;;;;;4942473;29;20558;-76
2021/11/15 04:39:38;;;;;;;1.50;1.30;;;;;;;;;;4942416;29;20019;-75
2021/11/15 04:42:05;;;;;;;2.17;1.40;;;;;;;;;;4924785;29;20058;-75
2021/11/15 04:44:31;;;;;;;1.85;1.40;;;;;;;;;;4940434;29;20019;-76
2021/11/15 04:46:57;;;;;;;2.58;2.13;;;;;;;;;;4941493;29;20043;-75
2021/11/15 04:49:23;;;;;;;1.60;1.50;;;;;;;;;;4941734;29;20054;-76
2021/11/15 04:51:49;;;;;;;1.90;1.27;;;;;;;;;;4942716;29;20115;-74
2021/11/15 04:54:16;;;;;;;1.83;1.33;;;;;;;;;;4942441;29;20079;-74
2021/11/15 04:56:42;;;;;;;1.63;1.52;;;;;;;;;;4941003;29;20028;-74
2021/11/15 04:59:08;;;;;;;1.52;1.42;;;;;;;;;;4942086;29;20024;-74
2021/11/15 05:01:35;;;;;;;2.00;1.80;;;;;;;;;;4942205;29;20024;-75
2021/11/15 05:04:01;;;;;;;2.28;1.90;;;;;;;;;;4941633;29;20110;-75
2021/11/15 05:06:27;;;;;;;3.13;1.90;;;;;;;;;;4925948;29;20031;-74
2021/11/15 05:08:53;;;;;;;2.45;1.80;;;;;;;;;;4924251;29;20024;-75
2021/11/15 05:11:19;;;;;;;2.40;2.20;;;;;;;;;;4942971;29;20063;-75
2021/11/15 05:13:45;;;;;;;2.28;1.90;;;;;;;;;;4924811;29;20035;-76
2021/11/15 05:16:11;;;;;;;2.20;1.63;;;;;;;;;;4943224;29;20043;-74
2021/11/15 05:18:38;;;;;;;1.90;1.60;;;;;;;;;;4942406;29;20383;-76
2021/11/15 05:21:04;;;;;;;2.42;1.70;;;;;;;;;;4942121;29;20038;-74
2021/11/15 05:23:30;;;;;;;2.03;1.70;;;;;;;;;;4941634;29;20114;-74
2021/11/15 05:25:56;;;;;;;2.10;1.90;;;;;;;;;;4942815;29;20066;-75
2021/11/15 05:28:23;;;;;;;1.60;1.50;;;;;;;;;;4942224;29;20024;-75
2021/11/15 05:30:49;;;;;;;1.50;1.40;;;;;;;;;;4942346;29;20034;-74
2021/11/15 05:33:15;;;;;;;1.77;1.60;;;;;;;;;;4942795;29;20031;-74
2021/11/15 05:35:41;;;;;;;2.88;1.40;;;;;;;;;;4942813;29;20379;-74
2021/11/15 05:38:08;;;;;;;1.38;1.30;;;;;;;;;;4941760;29;20059;-75
2021/11/15 05:40:34;;;;;;;1.58;1.48;;;;;;;;;;4939943;29;20035;-74
2021/11/15 05:43:00;;;;;;;1.90;1.70;;;;;;;;;;4939201;29;20472;-77
2021/11/15 05:45:27;;;;;;;3.28;1.65;;;;;;;;;;4939630;29;20467;-76
2021/11/15 05:47:54;;;;;;;1.63;1.50;;;;;;;;;;4939562;29;20102;-74
2021/11/15 05:50:20;;;;;;;2.00;1.40;;;;;;;;;;4939177;29;20051;-76
2021/11/15 05:52:48;;;;;;;4.13;1.90;;;;;;;;;;4939413;29;20364;-76
2021/11/15 05:55:18;;;;;;;2.63;2.17;;;;;;;;;;4940051;29;20079;-76
2021/11/15 05:57:45;;;;;;;1.77;1.60;;;;;;;;;;4940521;29;20380;-74
2021/11/15 06:00:13;;;;;;;1.90;1.70;;;;;;;;;;4940376;29;20034;-74
2021/11/15 06:02:39;;;;;;;3.97;1.75;;;;;;;;;;4940339;29;20510;-75
2021/11/15 06:05:07;;;;;;;3.05;1.60;;;;;;;;;;4939646;29;20035;-76
2021/11/15 06:07:33;;;;;;;3.00;2.00;;;;;;;;;;4940307;29;20055;-75
2021/11/15 06:09:59;;;;;;;2.78;2.00;;;;;;;;;;4940341;29;20031;-74
2021/11/15 06:12:25;;;;;;;3.20;2.10;;;;;;;;;;4940770;29;20028;-74
2021/11/15 06:14:51;;;;;;;2.20;2.00;;;;;;;;;;4940754;29;20048;-74
2021/11/15 06:17:17;;;;;;;2.40;2.17;;;;;;;;;;4939870;29;20071;-77
2021/11/15 06:19:43;;;;;;;2.63;2.13;;;;;;;;;;4940558;29;20062;-75
2021/11/15 06:22:10;;;;;;;3.78;2.63;;;;;;;;;;4940584;29;20534;-75
2021/11/15 06:24:37;;;;;;;4.07;2.20;;;;;;;;;;4940300;29;20395;-76
2021/11/15 06:27:03;;;;;;;4.03;2.55;;;;;;;;;;4939630;29;20038;-75
2021/11/15 06:29:29;;;;;;;3.92;2.58;;;;;;;;;;4921777;29;20031;-76
2021/11/15 06:31:55;;;;;;;4.45;2.85;;;;;;;;;;4939312;29;20406;-74
2021/11/15 06:34:21;;;;;;;4.03;2.65;;;;;;;;;;4940189;29;20023;-75
2021/11/15 06:36:47;;;;;;;4.65;2.53;;;;;;;;;;4939072;29;20443;-75
2021/11/15 06:39:14;;;;;;;4.30;2.50;;;;;;;;;;4939046;29;20034;-75
2021/11/15 06:41:42;;;;;;;5.05;3.00;;;;;;;;;;4939851;29;20028;-75
2021/11/15 06:44:08;;;;;;;6.45;3.15;;;;;;;;;;4939038;29;20050;-77
2021/11/15 06:46:34;;;;;;;6.05;2.75;;;;;;;;;;4939504;29;20028;-75
2021/11/15 06:49:00;;;;;;;4.68;2.72;;;;;;;;;;4939972;29;20028;-74
2021/11/15 06:51:28;;;;;;;8.02;2.90;;;;;;;;;;4939672;29;20432;-76
2021/11/15 06:53:54;;;;;;;4.90;2.80;;;;;;;;;;4940276;29;20030;-75
2021/11/15 06:56:21;;;;;;;4.75;2.90;;;;;;;;;;4939723;29;20030;-77
2021/11/15 06:58:47;;;;;;;8.13;4.13;;;;;;;;;;4939843;29;20055;-74
2021/11/15 07:01:13;;;;;;;8.13;3.58;;;;;;;;;;4922863;29;20090;-76
2021/11/15 07:03:39;;;;;;;5.40;3.05;;;;;;;;;;4939857;29;20043;-77
2021/11/15 07:06:05;;;;;;;4.68;2.97;;;;;;;;;;4941265;29;20040;-76
2021/11/15 07:08:31;;;;;;;4.28;3.30;;;;;;;;;;4944955;29;20372;-75
2021/11/15 07:10:58;;;;;;;5.55;2.80;;;;;;;;;;4944819;29;20035;-75
2021/11/15 07:13:24;;;;;;;4.82;2.85;;;;;;;;;;4945450;29;20446;-76
2021/11/15 07:15:50;;;;;;;5.75;2.90;;;;;;;;;;4946653;29;20091;-76
2021/11/15 07:18:17;;;;;;;9.10;3.45;;;;;;;;;;4929096;29;20031;-75
2021/11/15 07:20:43;;;;;;;7.03;3.20;;;;;;;;;;4947033;29;20379;-76
2021/11/15 07:23:10;;;;;;;4.88;3.25;;;;;;;;;;4945062;29;20024;-75
2021/11/15 07:25:36;;;;;;;7.93;3.15;;;;;;;;;;4944843;29;20027;-74
2021/11/15 07:28:02;;;;;;;6.05;4.00;;;;;;;;;;4943852;29;20468;-75
2021/11/15 07:30:28;;;;;;;5.40;3.50;;;;;;;;;;4943732;29;20119;-76
2021/11/15 07:32:54;;;;;;;8.00;3.95;;;;;;;;;;4943823;29;20024;-75
2021/11/15 07:35:21;;;;;;;7.13;3.80;;;;;;;;;;4943750;29;20027;-75
2021/11/15 07:37:47;;;;;;;6.15;3.83;;;;;;;;;;4943397;29;20071;-75
2021/11/15 07:40:14;;;;;;;8.07;4.75;;;;;;;;;;4943951;29;20020;-74
2021/11/15 07:42:40;;;;;;;6.90;4.30;;;;;;;;;;4943782;29;20032;-75
2021/11/15 07:45:06;;;;;;;7.72;4.30;;;;;;;;;;4944951;29;20063;-74
2021/11/15 07:47:35;;;;;;;8.65;4.55;;;;;;;;;;4944568;29;20035;-77
2021/11/15 07:50:01;;;;;;;7.85;4.05;;;;;;;;;;4943920;29;20047;-76
2021/11/15 07:52:27;;;;;;;6.28;3.92;;;;;;;;;;4944243;29;20030;-76
2021/11/15 07:54:53;;;;;;;9.65;4.15;;;;;;;;;;4943932;29;20031;-75
2021/11/15 07:57:19;;;;;;;10.23;5.18;;;;;;;;;;4943914;29;20063;-76
2021/11/15 07:59:46;;;;;;;8.57;4.05;;;;;;;;;;4927436;29;20027;-74
2021/11/15 08:02:12;;;;;;;7.75;3.70;;;;;;;;;;4943341;29;20047;-74
2021/11/15 08:04:39;;;;;;;6.45;4.15;;;;;;;;;;4943717;29;20067;-76
2021/11/15 08:07:05;;;;;;;8.40;4.10;;;;;;;;;;4945715;29;20036;-75
2021/11/15 08:09:32;;;;;;;7.00;3.15;;;;;;;;;;4936151;29;20031;-76
2021/11/15 08:12:03;;;;;;;7.10;3.47;;;;;;;;;;4921511;29;20342;-74
2021/11/15 08:14:29;;;;;;;7.97;3.85;;;;;;;;;;4920945;29;20032;-75
2021/11/15 08:16:56;;;;;;;5.70;3.53;;;;;;;;;;4920754;29;20168;-76
2021/11/15 08:19:25;;;;;;;7.60;4.53;;;;;;;;;;4924014;29;20020;-75
2021/11/15 08:21:51;;;;;;;6.05;3.53;;;;;;;;;;4919138;29;20032;-78
2021/11/15 08:24:17;;;;;;;7.07;3.10;;;;;;;;;;4936397;29;20043;-77
2021/11/15 08:26:44;;;;;;;5.82;3.00;;;;;;;;;;4935327;29;20041;-76
2021/11/15 08:29:12;;;;;;;7.82;2.67;;;;;;;;;;4934821;29;20034;-75
2021/11/15 08:31:39;;;;;;;4.88;3.00;;;;;;;;;;4920048;29;20079;-75
2021/11/15 08:34:05;;;;;;;4.95;3.10;;;;;;;;;;4921837;29;20032;-77
2021/11/15 08:36:31;;;;;;;4.60;3.30;;;;;;;;;;4922923;29;20032;-77
2021/11/15 08:39:05;;;;;;;3.78;2.67;;;;;;;;;;4923824;29;20039;-76
2021/11/15 08:41:33;;;;;;;4.32;2.40;;;;;;;;;;4930531;29;20024;-76
2021/11/15 08:44:00;;;;;;;3.95;2.50;;;;;;;;;;4919437;29;20040;-75
2021/11/15 08:46:28;;;;;;;4.30;2.60;;;;;;;;;;4933902;29;20115;-75
2021/11/15 08:48:55;;;;;;;5.00;2.67;;;;;;;;;;4935874;29;20517;-76
2021/11/15 08:51:21;;;;;;;3.33;2.90;;;;;;;;;;4937812;29;20031;-76
2021/11/15 08:53:48;;;;;;;3.60;2.75;;;;;;;;;;4930827;29;20040;-76
2021/11/15 08:56:14;;;;;;;4.68;2.58;;;;;;;;;;4929819;29;20127;-75
2021/11/15 08:58:41;;;;;;;5.72;2.80;;;;;;;;;;4924519;29;20521;-77
2021/11/15 09:01:08;;;;;;;4.63;2.90;;;;;;;;;;4927267;29;20087;-78
2021/11/15 09:03:41;;;;;;;4.47;2.72;;;;;;;;;;4940024;29;20082;-76
2021/11/15 09:06:08;;;;;;;4.95;3.08;;;;;;;;;;4921983;29;20036;-77
2021/11/15 09:08:35;;;;;;;5.38;2.55;;;;;;;;;;4937788;29;20063;-77
2021/11/15 09:11:01;;;;;;;6.22;3.25;;;;;;;;;;4933865;29;20091;-76
2021/11/15 09:13:28;;;;;;;3.88;2.67;;;;;;;;;;4923264;29;20028;-77
2021/11/15 09:15:54;;;;;;;5.55;2.92;;;;;;;;;;4931684;29;20042;-78
2021/11/15 09:18:20;;;;;;;6.05;2.45;;;;;;;;;;4933467;29;20035;-77
2021/11/15 09:20:46;;;;;;;3.72;2.63;;;;;;;;;;4923722;29;20462;-77
2021/11/15 09:23:12;;;;;;;4.03;2.78;;;;;;;;;;4932798;29;20090;-77
2021/11/15 09:25:40;;;;;;;5.15;3.40;;;;;;;;;;4920671;29;20095;-77
2021/11/15 09:28:07;;;;;;;6.55;3.28;;;;;;;;;;4937243;29;20024;-76
2021/11/15 09:30:33;;;;;;;5.55;3.28;;;;;;;;;;4925709;29;20104;-77
2021/11/15 09:32:59;;;;;;;6.35;3.22;;;;;;;;;;4928623;29;20109;-78
2021/11/15 09:35:26;;;;;;;6.85;3.35;;;;;;;;;;4926345;29;20043;-77
2021/11/15 09:37:52;;;;;;;4.78;3.33;;;;;;;;;;4926163;29;20020;-77
2021/11/15 09:40:18;;;;;;;7.43;3.45;;;;;;;;;;4928432;29;20036;-77
2021/11/15 09:42:45;;;;;;;5.20;3.13;;;;;;;;;;4932554;29;20028;-77
2021/11/15 09:45:11;;;;;;;5.80;3.38;;;;;;;;;;4925888;29;20031;-76
2021/11/15 09:47:39;;;;;;;5.63;3.58;;;;;;;;;;4926636;29;20395;-75
2021/11/15 09:50:07;;;;;;;8.43;3.50;;;;;;;;;;4928191;29;20038;-77
2021/11/15 09:52:34;;;;;;;5.55;3.55;;;;;;;;;;4934401;29;20111;-76
2021/11/15 09:55:04;;;;;;;7.85;3.30;;;;;;;;;;4928390;29;20042;-76
2021/11/15 09:57:31;;;;;;;6.78;3.33;;;;;;;;;;4932749;29;20254;-75
2021/11/15 09:59:57;;;;;;;8.27;3.55;;;;;;;;;;4931482;29;20038;-75
2021/11/15 10:02:24;;;;;;;6.97;3.50;;;;;;;;;;4924062;29;20032;-75
2021/11/15 10:04:50;;;;;;;12.20;4.03;;;;;;;;;;4920049;29;20040;-75
2021/11/15 10:07:16;;;;;;;9.13;4.18;;;;;;;;;;4927891;29;20499;-75
2021/11/15 10:09:42;;;;;;;6.22;3.42;;;;;;;;;;4926828;29;20036;-75
2021/11/15 10:12:15;;;;;;;9.02;3.42;;;;;;;;;;4931769;29;20024;-76
2021/11/15 10:15:01;;;;;;;8.25;3.38;;;;;;;;;;4925240;29;20133;-75
2021/11/15 10:17:46;;;;;;;5.85;3.60;;;;;;;;;;4922328;29;20039;-75
2021/11/15 10:20:12;;;;;;;11.02;4.25;;;;;;;;;;4930378;29;20058;-76
2021/11/15 10:22:40;;;;;;;8.07;3.28;;;;;;;;;;4922124;29;20031;-75
2021/11/15 10:25:06;;;;;;;9.50;3.95;;;;;;;;;;4921725;29;20769;-75
2021/11/15 10:27:34;;;;;;;13.63;4.18;;;;;;;;;;4929295;29;20514;-76
2021/11/15 10:30:08;;;;;;;7.18;3.20;;;;;;;;;;4918606;29;20403;-75
2021/11/15 10:32:42;;;;;;;7.90;3.00;;;;;;;;;;4913889;29;20044;-76
2021/11/15 10:35:08;;;;;;;7.45;4.78;;;;;;;;;;4929497;29;20035;-76
2021/11/15 10:37:36;;;;;;;7.63;3.22;;;;;;;;;;4932694;29;20067;-78
2021/11/15 10:40:06;;;;;;;10.70;3.63;;;;;;;;;;4932373;29;20042;-76
2021/11/15 10:42:46;;;;;;;11.93;3.70;;;;;;;;;;4918065;29;20028;-75
2021/11/15 10:45:14;;;;;;;6.82;3.58;;;;;;;;;;4917458;29;20099;-76
2021/11/15 10:47:42;;;;;;;5.10;3.05;;;;;;;;;;4921153;29;20032;-76
2021/11/15 10:50:23;;;;;;;5.32;3.35;;;;;;;;;;4916757;29;20795;-75
2021/11/15 10:53:03;;;;;;;6.72;3.60;;;;;;;;;;4931038;29;20119;-76
2021/11/15 10:55:35;;;;;;;5.78;3.00;;;;;;;;;;4932804;29;20036;-77
2021/11/15 10:58:02;;;;;;;7.10;3.90;;;;;;;;;;4927813;29;20079;-76
2021/11/15 11:00:32;;;;;;;14.35;4.18;;;;;;;;;;4932206;29;20051;-77
2021/11/15 11:03:04;;;;;;;10.10;3.67;;;;;;;;;;4912184;29;20038;-76
2021/11/15 11:05:31;;;;;;;6.40;4.05;;;;;;;;;;4925437;29;20043;-75
2021/11/15 11:08:17;;;;;;;10.63;4.40;;;;;;;;;;4933292;29;20067;-75
2021/11/15 11:10:49;;;;;;;11.63;6.55;;;;;;;;;;4922532;29;20027;-76
2021/11/15 11:13:16;;;;;;;7.93;4.90;;;;;;;;;;4934741;29;20035;-77
2021/11/15 11:15:48;;;;;;;6.65;3.78;;;;;;;;;;4916769;29;20470;-74
2021/11/15 11:18:34;;;;;;;7.72;4.18;;;;;;;;;;4928815;29;20062;-76
2021/11/15 11:21:29;;;;;;;7.97;3.50;;;;;;;;;;4933296;29;20027;-77
2021/11/15 11:26:28;;;;;;;6.28;3.03;;;;;;;;;;4930002;29;20039;-78
2021/11/15 11:28:58;;;;;;;7.15;4.03;;;;;;;;;;4933129;29;20035;-76
2021/11/15 11:31:27;;;;;;;11.13;3.05;;;;;;;;;;4919534;29;20025;-76
2021/11/15 11:33:54;;;;;;;9.45;4.40;;;;;;;;;;4917147;29;20038;-74
2021/11/15 11:36:29;;;;;;;4.65;2.85;;;;;;;;;;4926824;29;20035;-74
2021/11/15 11:38:55;;;;;;;8.18;4.07;;;;;;;;;;4925361;29;20028;-77
2021/11/15 11:41:22;;;;;;;6.72;3.17;;;;;;;;;;4930561;29;20485;-75
2021/11/15 11:43:49;;;;;;;5.10;3.10;;;;;;;;;;4931668;29;20031;-75
2021/11/15 11:46:17;;;;;;;7.32;2.70;;;;;;;;;;4915011;29;20036;-76
2021/11/15 11:48:53;;;;;;;9.02;3.53;;;;;;;;;;4926550;29;20032;-76
2021/11/15 11:51:21;;;;;;;9.15;3.25;;;;;;;;;;4916293;29;20063;-75
2021/11/15 11:53:47;;;;;;;4.93;3.00;;;;;;;;;;4915157;29;20464;-75
2021/11/15 11:56:23;;;;;;;4.78;3.35;;;;;;;;;;4924094;29;20040;-75
2021/11/15 11:58:51;;;;;;;6.13;2.92;;;;;;;;;;4884609;29;1465042;-75
2021/11/15 12:01:22;;;;;;;3.92;2.63;;;;;;;;;;4919364;29;20092;-75
2021/11/15 12:04:07;;;;;;;7.53;3.05;;;;;;;;;;4921700;29;20491;-76
2021/11/15 12:06:33;;;;;;;3.72;2.67;;;;;;;;;;4927220;29;20040;-77
2021/11/15 12:08:59;;;;;;;5.68;2.97;;;;;;;;;;4928242;29;20039;-75
2021/11/15 12:11:26;;;;;;;6.60;3.38;;;;;;;;;;4930923;29;20054;-75
2021/11/15 12:13:52;;;;;;;9.85;3.70;;;;;;;;;;4934548;29;20421;-76
2021/11/15 12:16:19;;;;;;;12.05;6.15;;;;;;;;;;4914254;29;20032;-75
2021/11/15 12:18:55;;;;;;;12.15;6.93;;;;;;;;;;4929514;29;20032;-75
2021/11/15 12:21:21;;;;;;;8.00;3.35;;;;;;;;;;4927396;29;20043;-75
2021/11/15 12:23:54;;;;;;;11.63;6.25;;;;;;;;;;4916469;29;20111;-74
2021/11/15 12:26:22;;;;;;;6.07;4.57;;;;;;;;;;4919928;29;20111;-73
2021/11/15 12:28:49;;;;;;;5.28;2.67;;;;;;;;;;4931890;29;20537;-74
2021/11/15 12:31:16;;;;;;;7.90;3.20;;;;;;;;;;4933241;29;20086;-74
2021/11/15 12:33:43;;;;;;;6.05;2.53;;;;;;;;;;4931821;29;20417;-75
2021/11/15 12:36:13;;;;;;;4.43;2.78;;;;;;;;;;4915078;29;20111;-75
2021/11/15 12:38:49;;;;;;;3.50;2.50;;;;;;;;;;4919349;29;20028;-76
2021/11/15 12:41:19;;;;;;;6.03;2.45;;;;;;;;;;4933985;29;20061;-76
2021/11/15 12:44:07;;;;;;;7.55;2.40;;;;;;;;;;4934239;29;20020;-75
2021/11/15 12:46:53;;;;;;;4.00;2.00;;;;;;;;;;4934215;29;20039;-74
2021/11/15 12:49:22;;;;;;;5.75;1.90;;;;;;;;;;4923811;29;20036;-77
2021/11/15 12:52:09;;;;;;;3.70;2.20;;;;;;;;;;4926968;29;20051;-76
2021/11/15 12:54:40;;;;;;;5.05;2.17;;;;;;;;;;4900529;29;20051;-76
2021/11/15 12:57:08;;;;;;;5.68;1.90;;;;;;;;;;4922027;29;20052;-77
2021/11/15 12:59:34;;;;;;;3.33;2.15;;;;;;;;;;4930461;29;20023;-77
2021/11/15 13:02:02;;;;;;;4.03;1.80;;;;;;;;;;4919606;29;20036;-75
2021/11/15 13:04:28;;;;;;;3.92;1.70;;;;;;;;;;4920506;29;20023;-77
2021/11/15 13:06:54;;;;;;;3.80;1.92;;;;;;;;;;4932940;29;20419;-76
2021/11/15 13:09:20;;;;;;;4.18;1.70;;;;;;;;;;4906685;29;20039;-75
2021/11/15 13:11:47;;;;;;;3.45;1.88;;;;;;;;;;4925903;29;20031;-76
2021/11/15 13:14:14;;;;;;;4.07;2.05;;;;;;;;;;4925626;29;20065;-77
2021/11/15 13:16:40;;;;;;;3.95;2.50;;;;;;;;;;4927345;29;20051;-76
2021/11/15 13:19:07;;;;;;;5.80;2.80;;;;;;;;;;4933849;29;20028;-77
2021/11/15 13:21:39;;;;;;;5.65;2.30;;;;;;;;;;4933459;29;20043;-77
2021/11/15 13:24:06;;;;;;;4.10;2.38;;;;;;;;;;4933252;29;20051;-77
2021/11/15 13:26:34;;;;;;;5.72;2.58;;;;;;;;;;4916014;29;20036;-76
2021/11/15 13:29:01;;;;;;;8.55;2.55;;;;;;;;;;4916073;29;20031;-76
2021/11/15 13:31:27;;;;;;;3.25;1.95;;;;;;;;;;4933021;29;20031;-76
2021/11/15 13:33:53;;;;;;;10.20;3.78;;;;;;;;;;4932945;29;20036;-75
2021/11/15 13:36:19;;;;;;;9.00;4.03;;;;;;;;;;4932146;29;20130;-76
2021/11/15 13:38:45;;;;;;;9.32;4.53;;;;;;;;;;4933421;29;20498;-76
2021/11/15 13:41:11;;;;;;;11.43;5.32;;;;;;;;;;4933080;29;20032;-78
2021/11/15 13:43:37;;;;;;;15.20;9.77;;;;;;;;;;4932832;29;20185;-74
2021/11/15 13:46:07;;;;;;;7.18;3.53;;;;;;;;;;4931866;29;20115;-74
2021/11/15 13:48:34;;;;;;;12.85;7.93;;;;;;;;;;4932912;29;20379;-74
2021/11/15 13:51:00;;;;;;;8.63;4.15;;;;;;;;;;4931682;29;20043;-75
2021/11/15 13:53:26;;;;;;;4.30;2.08;;;;;;;;;;4914157;29;20039;-75
2021/11/15 13:55:52;;;;;;;5.82;3.47;;;;;;;;;;4914316;29;20046;-75
2021/11/15 13:58:18;;;;;;;11.05;6.45;;;;;;;;;;4916679;29;20099;-78
2021/11/15 14:00:44;;;;;;;3.92;2.42;;;;;;;;;;4922030;29;20107;-75
2021/11/15 14:03:11;;;;;;;5.72;3.10;;;;;;;;;;4921252;29;20491;-76
2021/11/15 14:05:37;;;;;;;3.63;2.20;;;;;;;;;;4921927;29;20031;-77
2021/11/15 14:08:05;;;;;;;5.15;2.10;;;;;;;;;;4919985;29;20063;-75
2021/11/15 14:10:34;;;;;;;5.53;2.10;;;;;;;;;;4924812;29;20035;-75
2021/11/15 14:13:00;;;;;;;3.90;2.10;;;;;;;;;;4935548;29;20505;-76
2021/11/15 14:15:26;;;;;;;4.30;2.58;;;;;;;;;;4933399;29;20062;-77
2021/11/15 14:17:52;;;;;;;5.38;2.50;;;;;;;;;;4934169;29;20032;-77
2021/11/15 14:20:21;;;;;;;5.32;2.33;;;;;;;;;;4932752;29;20031;-76
2021/11/15 14:22:47;;;;;;;6.18;2.60;;;;;;;;;;4933686;29;20024;-77
2021/11/15 14:25:13;;;;;;;4.20;2.00;;;;;;;;;;4917689;29;20032;-77
2021/11/15 14:27:39;;;;;;;6.88;2.60;;;;;;;;;;4918124;29;20032;-78
2021/11/15 14:30:07;;;;;;;6.75;2.53;;;;;;;;;;4918455;29;20086;-76
2021/11/15 14:32:34;;;;;;;4.72;2.47;;;;;;;;;;4918792;29;20043;-75
2021/11/15 14:35:01;;;;;;;3.33;1.90;;;;;;;;;;4914141;29;20036;-76
2021/11/15 14:37:28;;;;;;;19.77;7.22;;;;;;;;;;4913264;29;20038;-75
2021/11/15 14:39:54;;;;;;;22.70;9.15;;;;;;;;;;4926567;29;20119;-76
2021/11/15 14:42:20;;;;;;;30.38;13.27;;;;;;;;;;4920786;29;20039;-76
2021/11/15 14:44:46;;;;;;;17.60;9.27;;;;;;;;;;4913433;29;20031;-76
2021/11/15 14:47:17;;;;;;;9.20;4.15;;;;;;;;;;4913656;29;20502;-75